sensor_id;sensor_type;location;lat;lon;timestamp;temperature;humidity
76613;DHT22;65507;48.454;-2.058;2023-08-07T00:00:03;14.40;72.80
76613;DHT22;65507;48.454;-2.058;2023-08-07T00:02:29;14.40;73.00
76613;DHT22;65507;48.454;-2.058;2023-08-07T00:04:54;14.30;73.00
76613;DHT22;65507;48.454;-2.058;2023-08-07T00:07:20;14.30;72.90
76613;DHT22;65507;48.454;-2.058;2023-08-07T00:09:45;14.30;73.00
76613;DHT22;65507;48.454;-2.058;2023-08-07T00:12:11;14.30;73.00
76613;DHT22;65507;48.454;-2.058;2023-08-07T00:14:36;14.30;73.10
76613;DHT22;65507;48.454;-2.058;2023-08-07T00:17:02;14.30;73.10
76613;DHT22;65507;48.454;-2.058;2023-08-07T00:19:28;14.30;73.10
76613;DHT22;65507;48.454;-2.058;2023-08-07T00:21:54;14.30;73.00
76613;DHT22;65507;48.454;-2.058;2023-08-07T00:24:19;14.30;73.00
76613;DHT22;65507;48.454;-2.058;2023-08-07T00:26:45;14.30;73.00
76613;DHT22;65507;48.454;-2.058;2023-08-07T00:29:10;14.30;73.10
76613;DHT22;65507;48.454;-2.058;2023-08-07T00:31:36;14.30;73.20
76613;DHT22;65507;48.454;-2.058;2023-08-07T00:34:02;14.30;73.40
76613;DHT22;65507;48.454;-2.058;2023-08-07T00:36:29;14.30;73.30
76613;DHT22;65507;48.454;-2.058;2023-08-07T00:38:56;14.30;73.40
76613;DHT22;65507;48.454;-2.058;2023-08-07T00:41:22;14.30;73.50
76613;DHT22;65507;48.454;-2.058;2023-08-07T00:43:47;14.30;73.50
76613;DHT22;65507;48.454;-2.058;2023-08-07T00:46:13;14.30;73.30
76613;DHT22;65507;48.454;-2.058;2023-08-07T00:48:39;14.30;73.30
76613;DHT22;65507;48.454;-2.058;2023-08-07T00:51:04;14.30;73.30
76613;DHT22;65507;48.454;-2.058;2023-08-07T00:53:33;14.20;73.40
76613;DHT22;65507;48.454;-2.058;2023-08-07T00:55:58;14.20;73.50
76613;DHT22;65507;48.454;-2.058;2023-08-07T00:58:25;14.20;73.50
76613;DHT22;65507;48.454;-2.058;2023-08-07T01:00:51;14.20;73.60
76613;DHT22;65507;48.454;-2.058;2023-08-07T01:03:16;14.20;73.80
76613;DHT22;65507;48.454;-2.058;2023-08-07T01:05:42;14.20;73.90
76613;DHT22;65507;48.454;-2.058;2023-08-07T01:08:07;14.20;73.70
76613;DHT22;65507;48.454;-2.058;2023-08-07T01:13:16;14.20;73.50
76613;DHT22;65507;48.454;-2.058;2023-08-07T01:15:44;14.20;73.50
76613;DHT22;65507;48.454;-2.058;2023-08-07T01:18:10;14.20;73.60
76613;DHT22;65507;48.454;-2.058;2023-08-07T01:20:36;14.20;73.60
76613;DHT22;65507;48.454;-2.058;2023-08-07T01:23:02;14.20;73.80
76613;DHT22;65507;48.454;-2.058;2023-08-07T01:25:28;14.20;73.80
76613;DHT22;65507;48.454;-2.058;2023-08-07T01:28:11;14.20;73.80
76613;DHT22;65507;48.454;-2.058;2023-08-07T01:30:40;14.20;73.80
76613;DHT22;65507;48.454;-2.058;2023-08-07T01:33:12;14.20;73.80
76613;DHT22;65507;48.454;-2.058;2023-08-07T01:35:43;14.20;73.70
76613;DHT22;65507;48.454;-2.058;2023-08-07T01:38:08;14.20;73.80
76613;DHT22;65507;48.454;-2.058;2023-08-07T01:40:35;14.20;73.80
76613;DHT22;65507;48.454;-2.058;2023-08-07T01:43:02;14.20;73.80
76613;DHT22;65507;48.454;-2.058;2023-08-07T01:45:28;14.20;73.90
76613;DHT22;65507;48.454;-2.058;2023-08-07T01:47:54;14.20;74.10
76613;DHT22;65507;48.454;-2.058;2023-08-07T01:50:19;14.20;74.00
76613;DHT22;65507;48.454;-2.058;2023-08-07T01:52:45;14.20;73.90
76613;DHT22;65507;48.454;-2.058;2023-08-07T01:55:15;14.20;74.10
76613;DHT22;65507;48.454;-2.058;2023-08-07T01:57:41;14.20;73.80
76613;DHT22;65507;48.454;-2.058;2023-08-07T02:00:06;14.20;74.20
76613;DHT22;65507;48.454;-2.058;2023-08-07T02:02:33;14.20;73.80
76613;DHT22;65507;48.454;-2.058;2023-08-07T02:04:59;14.20;73.80
76613;DHT22;65507;48.454;-2.058;2023-08-07T02:07:24;14.20;73.90
76613;DHT22;65507;48.454;-2.058;2023-08-07T02:09:50;14.20;74.10
76613;DHT22;65507;48.454;-2.058;2023-08-07T02:12:15;14.20;73.90
76613;DHT22;65507;48.454;-2.058;2023-08-07T02:14:41;14.20;74.20
76613;DHT22;65507;48.454;-2.058;2023-08-07T02:17:06;14.10;74.20
76613;DHT22;65507;48.454;-2.058;2023-08-07T02:19:32;14.10;74.30
76613;DHT22;65507;48.454;-2.058;2023-08-07T02:22:01;14.00;74.50
76613;DHT22;65507;48.454;-2.058;2023-08-07T02:24:26;14.00;74.40
76613;DHT22;65507;48.454;-2.058;2023-08-07T02:26:52;13.90;74.50
76613;DHT22;65507;48.454;-2.058;2023-08-07T02:29:17;13.90;74.80
76613;DHT22;65507;48.454;-2.058;2023-08-07T02:31:43;13.90;74.50
76613;DHT22;65507;48.454;-2.058;2023-08-07T02:34:08;13.90;75.40
76613;DHT22;65507;48.454;-2.058;2023-08-07T02:36:34;13.90;74.60
76613;DHT22;65507;48.454;-2.058;2023-08-07T02:38:59;13.90;74.80
76613;DHT22;65507;48.454;-2.058;2023-08-07T02:41:25;13.80;74.80
76613;DHT22;65507;48.454;-2.058;2023-08-07T02:43:51;13.80;75.20
76613;DHT22;65507;48.454;-2.058;2023-08-07T02:46:16;13.80;75.10
76613;DHT22;65507;48.454;-2.058;2023-08-07T02:48:43;13.70;75.00
76613;DHT22;65507;48.454;-2.058;2023-08-07T02:51:09;13.70;75.20
76613;DHT22;65507;48.454;-2.058;2023-08-07T02:53:34;13.70;75.10
76613;DHT22;65507;48.454;-2.058;2023-08-07T02:56:00;13.70;75.10
76613;DHT22;65507;48.454;-2.058;2023-08-07T02:58:25;13.70;75.20
76613;DHT22;65507;48.454;-2.058;2023-08-07T03:00:51;13.70;75.00
76613;DHT22;65507;48.454;-2.058;2023-08-07T03:03:17;13.70;75.00
76613;DHT22;65507;48.454;-2.058;2023-08-07T03:05:51;13.70;75.00
76613;DHT22;65507;48.454;-2.058;2023-08-07T03:08:16;13.70;74.80
76613;DHT22;65507;48.454;-2.058;2023-08-07T03:10:42;13.70;75.00
76613;DHT22;65507;48.454;-2.058;2023-08-07T03:13:07;13.70;75.20
76613;DHT22;65507;48.454;-2.058;2023-08-07T03:15:33;13.70;74.90
76613;DHT22;65507;48.454;-2.058;2023-08-07T03:17:58;13.70;75.00
76613;DHT22;65507;48.454;-2.058;2023-08-07T03:20:24;13.70;74.90
76613;DHT22;65507;48.454;-2.058;2023-08-07T03:22:49;13.70;75.20
76613;DHT22;65507;48.454;-2.058;2023-08-07T03:25:15;13.70;75.00
76613;DHT22;65507;48.454;-2.058;2023-08-07T03:27:40;13.70;75.00
76613;DHT22;65507;48.454;-2.058;2023-08-07T03:30:06;13.70;75.10
76613;DHT22;65507;48.454;-2.058;2023-08-07T03:32:32;13.70;75.00
76613;DHT22;65507;48.454;-2.058;2023-08-07T03:34:57;13.70;75.00
76613;DHT22;65507;48.454;-2.058;2023-08-07T03:37:23;13.70;75.00
76613;DHT22;65507;48.454;-2.058;2023-08-07T03:39:48;13.70;75.00
76613;DHT22;65507;48.454;-2.058;2023-08-07T03:42:14;13.70;75.20
76613;DHT22;65507;48.454;-2.058;2023-08-07T03:44:42;13.70;75.10
76613;DHT22;65507;48.454;-2.058;2023-08-07T03:47:08;13.70;75.30
76613;DHT22;65507;48.454;-2.058;2023-08-07T03:49:33;13.70;75.70
76613;DHT22;65507;48.454;-2.058;2023-08-07T03:51:59;13.70;75.50
76613;DHT22;65507;48.454;-2.058;2023-08-07T03:54:24;13.60;75.20
76613;DHT22;65507;48.454;-2.058;2023-08-07T03:56:50;13.60;75.30
76613;DHT22;65507;48.454;-2.058;2023-08-07T03:59:16;13.60;75.40
76613;DHT22;65507;48.454;-2.058;2023-08-07T04:01:42;13.60;75.40
76613;DHT22;65507;48.454;-2.058;2023-08-07T04:04:07;13.60;75.60
76613;DHT22;65507;48.454;-2.058;2023-08-07T04:06:33;13.50;75.70
76613;DHT22;65507;48.454;-2.058;2023-08-07T04:08:58;13.50;75.70
76613;DHT22;65507;48.454;-2.058;2023-08-07T04:11:24;13.60;75.90
76613;DHT22;65507;48.454;-2.058;2023-08-07T04:13:50;13.50;75.90
76613;DHT22;65507;48.454;-2.058;2023-08-07T04:16:15;13.50;75.70
76613;DHT22;65507;48.454;-2.058;2023-08-07T04:18:42;13.50;75.70
76613;DHT22;65507;48.454;-2.058;2023-08-07T04:21:07;13.50;75.80
76613;DHT22;65507;48.454;-2.058;2023-08-07T04:23:33;13.50;75.50
76613;DHT22;65507;48.454;-2.058;2023-08-07T04:25:59;14.80;76.30
76613;DHT22;65507;48.454;-2.058;2023-08-07T04:28:25;13.50;75.60
76613;DHT22;65507;48.454;-2.058;2023-08-07T04:30:50;13.50;75.70
76613;DHT22;65507;48.454;-2.058;2023-08-07T04:33:16;13.50;75.60
76613;DHT22;65507;48.454;-2.058;2023-08-07T04:35:42;13.50;75.80
76613;DHT22;65507;48.454;-2.058;2023-08-07T04:38:07;13.40;75.90
76613;DHT22;65507;48.454;-2.058;2023-08-07T04:40:33;13.40;75.90
76613;DHT22;65507;48.454;-2.058;2023-08-07T04:42:58;13.30;76.10
76613;DHT22;65507;48.454;-2.058;2023-08-07T04:45:24;13.30;76.10
76613;DHT22;65507;48.454;-2.058;2023-08-07T04:47:50;13.30;76.10
76613;DHT22;65507;48.454;-2.058;2023-08-07T04:50:16;13.30;76.30
76613;DHT22;65507;48.454;-2.058;2023-08-07T04:52:41;13.30;76.20
76613;DHT22;65507;48.454;-2.058;2023-08-07T04:55:07;13.20;76.10
76613;DHT22;65507;48.454;-2.058;2023-08-07T04:57:32;13.30;76.20
76613;DHT22;65507;48.454;-2.058;2023-08-07T04:59:58;13.20;76.20
76613;DHT22;65507;48.454;-2.058;2023-08-07T05:02:24;13.20;76.30
76613;DHT22;65507;48.454;-2.058;2023-08-07T05:04:49;13.20;76.30
76613;DHT22;65507;48.454;-2.058;2023-08-07T05:07:15;13.20;76.30
76613;DHT22;65507;48.454;-2.058;2023-08-07T05:09:41;13.20;76.40
76613;DHT22;65507;48.454;-2.058;2023-08-07T05:12:06;13.20;77.10
76613;DHT22;65507;48.454;-2.058;2023-08-07T05:14:32;13.20;76.20
76613;DHT22;65507;48.454;-2.058;2023-08-07T05:16:58;13.30;76.20
76613;DHT22;65507;48.454;-2.058;2023-08-07T05:19:25;13.30;76.10
76613;DHT22;65507;48.454;-2.058;2023-08-07T05:21:50;13.40;76.00
76613;DHT22;65507;48.454;-2.058;2023-08-07T05:24:16;13.40;76.20
76613;DHT22;65507;48.454;-2.058;2023-08-07T05:26:42;13.50;75.80
76613;DHT22;65507;48.454;-2.058;2023-08-07T05:29:08;13.50;75.70
76613;DHT22;65507;48.454;-2.058;2023-08-07T05:31:33;13.60;75.60
76613;DHT22;65507;48.454;-2.058;2023-08-07T05:34:01;13.60;75.50
76613;DHT22;65507;48.454;-2.058;2023-08-07T05:36:27;13.70;75.60
76613;DHT22;65507;48.454;-2.058;2023-08-07T05:38:52;13.70;75.60
76613;DHT22;65507;48.454;-2.058;2023-08-07T05:41:18;13.80;75.40
76613;DHT22;65507;48.454;-2.058;2023-08-07T05:43:43;13.80;75.40
76613;DHT22;65507;48.454;-2.058;2023-08-07T05:46:09;13.90;75.50
76613;DHT22;65507;48.454;-2.058;2023-08-07T05:48:34;13.90;75.20
76613;DHT22;65507;48.454;-2.058;2023-08-07T05:51:00;14.00;75.20
76613;DHT22;65507;48.454;-2.058;2023-08-07T05:53:26;14.10;75.10
76613;DHT22;65507;48.454;-2.058;2023-08-07T05:55:51;14.10;75.10
76613;DHT22;65507;48.454;-2.058;2023-08-07T05:58:17;14.20;75.10
76613;DHT22;65507;48.454;-2.058;2023-08-07T06:00:42;14.30;74.90
76613;DHT22;65507;48.454;-2.058;2023-08-07T06:03:08;14.40;75.80
76613;DHT22;65507;48.454;-2.058;2023-08-07T06:05:34;14.40;74.90
76613;DHT22;65507;48.454;-2.058;2023-08-07T06:08:00;14.50;74.80
76613;DHT22;65507;48.454;-2.058;2023-08-07T06:10:26;14.60;74.70
76613;DHT22;65507;48.454;-2.058;2023-08-07T06:12:52;14.70;74.60
76613;DHT22;65507;48.454;-2.058;2023-08-07T06:15:17;14.80;74.60
76613;DHT22;65507;48.454;-2.058;2023-08-07T06:17:43;14.80;75.50
76613;DHT22;65507;48.454;-2.058;2023-08-07T06:20:08;14.90;74.50
76613;DHT22;65507;48.454;-2.058;2023-08-07T06:22:35;15.00;74.30
76613;DHT22;65507;48.454;-2.058;2023-08-07T06:25:00;15.10;74.90
76613;DHT22;65507;48.454;-2.058;2023-08-07T06:27:26;15.20;74.20
76613;DHT22;65507;48.454;-2.058;2023-08-07T06:29:52;15.20;74.20
76613;DHT22;65507;48.454;-2.058;2023-08-07T06:32:17;15.30;74.00
76613;DHT22;65507;48.454;-2.058;2023-08-07T06:34:43;15.40;74.00
76613;DHT22;65507;48.454;-2.058;2023-08-07T06:37:09;15.50;73.90
76613;DHT22;65507;48.454;-2.058;2023-08-07T06:39:34;15.50;73.90
76613;DHT22;65507;48.454;-2.058;2023-08-07T06:42:00;15.60;74.30
76613;DHT22;65507;48.454;-2.058;2023-08-07T06:44:26;15.60;74.00
76613;DHT22;65507;48.454;-2.058;2023-08-07T06:46:51;15.70;73.90
76613;DHT22;65507;48.454;-2.058;2023-08-07T06:49:17;15.70;73.70
76613;DHT22;65507;48.454;-2.058;2023-08-07T06:51:43;15.80;73.80
76613;DHT22;65507;48.454;-2.058;2023-08-07T06:54:08;15.80;73.60
76613;DHT22;65507;48.454;-2.058;2023-08-07T06:56:34;15.90;73.70
76613;DHT22;65507;48.454;-2.058;2023-08-07T06:59:00;15.90;73.70
76613;DHT22;65507;48.454;-2.058;2023-08-07T07:01:25;16.00;73.70
76613;DHT22;65507;48.454;-2.058;2023-08-07T07:03:51;16.00;73.70
76613;DHT22;65507;48.454;-2.058;2023-08-07T07:06:18;16.00;73.70
76613;DHT22;65507;48.454;-2.058;2023-08-07T07:08:43;16.10;73.60
76613;DHT22;65507;48.454;-2.058;2023-08-07T07:11:09;16.20;73.50
76613;DHT22;65507;48.454;-2.058;2023-08-07T07:13:35;16.20;73.50
76613;DHT22;65507;48.454;-2.058;2023-08-07T07:16:00;16.30;73.50
76613;DHT22;65507;48.454;-2.058;2023-08-07T07:18:26;16.30;73.60
76613;DHT22;65507;48.454;-2.058;2023-08-07T07:20:58;16.30;73.50
76613;DHT22;65507;48.454;-2.058;2023-08-07T07:23:26;16.40;73.50
76613;DHT22;65507;48.454;-2.058;2023-08-07T07:25:52;16.40;73.50
76613;DHT22;65507;48.454;-2.058;2023-08-07T07:28:17;16.50;73.50
76613;DHT22;65507;48.454;-2.058;2023-08-07T07:30:43;16.50;73.50
76613;DHT22;65507;48.454;-2.058;2023-08-07T07:33:09;16.60;73.40
76613;DHT22;65507;48.454;-2.058;2023-08-07T07:35:37;16.60;73.60
76613;DHT22;65507;48.454;-2.058;2023-08-07T07:38:04;16.70;73.40
76613;DHT22;65507;48.454;-2.058;2023-08-07T07:40:29;16.70;73.40
76613;DHT22;65507;48.454;-2.058;2023-08-07T07:42:55;16.80;73.20
76613;DHT22;65507;48.454;-2.058;2023-08-07T07:45:20;16.90;73.20
76613;DHT22;65507;48.454;-2.058;2023-08-07T07:47:46;17.00;73.10
76613;DHT22;65507;48.454;-2.058;2023-08-07T07:50:12;17.10;72.90
76613;DHT22;65507;48.454;-2.058;2023-08-07T07:52:38;17.20;73.20
76613;DHT22;65507;48.454;-2.058;2023-08-07T07:55:03;17.30;72.70
76613;DHT22;65507;48.454;-2.058;2023-08-07T07:57:30;17.40;72.60
76613;DHT22;65507;48.454;-2.058;2023-08-07T07:59:56;17.40;72.60
76613;DHT22;65507;48.454;-2.058;2023-08-07T08:02:21;17.50;72.40
76613;DHT22;65507;48.454;-2.058;2023-08-07T08:04:48;17.60;72.50
76613;DHT22;65507;48.454;-2.058;2023-08-07T08:07:13;17.60;72.30
76613;DHT22;65507;48.454;-2.058;2023-08-07T08:09:39;17.70;72.30
76613;DHT22;65507;48.454;-2.058;2023-08-07T08:12:04;17.80;72.30
76613;DHT22;65507;48.454;-2.058;2023-08-07T08:14:30;17.80;72.20
76613;DHT22;65507;48.454;-2.058;2023-08-07T08:16:55;18.00;72.10
76613;DHT22;65507;48.454;-2.058;2023-08-07T08:19:21;18.10;71.90
76613;DHT22;65507;48.454;-2.058;2023-08-07T08:21:46;18.20;71.90
76613;DHT22;65507;48.454;-2.058;2023-08-07T08:24:12;18.20;72.10
76613;DHT22;65507;48.454;-2.058;2023-08-07T08:26:38;18.30;71.80
76613;DHT22;65507;48.454;-2.058;2023-08-07T08:29:05;18.30;71.80
76613;DHT22;65507;48.454;-2.058;2023-08-07T08:31:30;18.30;71.80
76613;DHT22;65507;48.454;-2.058;2023-08-07T08:33:56;18.50;71.70
76613;DHT22;65507;48.454;-2.058;2023-08-07T08:36:22;18.70;71.70
76613;DHT22;65507;48.454;-2.058;2023-08-07T08:38:50;18.90;71.10
76613;DHT22;65507;48.454;-2.058;2023-08-07T08:41:17;19.10;70.80
76613;DHT22;65507;48.454;-2.058;2023-08-07T08:43:43;19.20;70.90
76613;DHT22;65507;48.454;-2.058;2023-08-07T08:46:11;19.40;71.10
76613;DHT22;65507;48.454;-2.058;2023-08-07T08:48:37;19.30;71.20
76613;DHT22;65507;48.454;-2.058;2023-08-07T08:51:04;19.50;72.30
76613;DHT22;65507;48.454;-2.058;2023-08-07T08:53:32;19.80;71.50
76613;DHT22;65507;48.454;-2.058;2023-08-07T08:55:59;19.70;70.70
76613;DHT22;65507;48.454;-2.058;2023-08-07T08:58:25;19.70;70.60
76613;DHT22;65507;48.454;-2.058;2023-08-07T09:00:51;19.70;70.80
76613;DHT22;65507;48.454;-2.058;2023-08-07T09:03:18;19.70;70.60
76613;DHT22;65507;48.454;-2.058;2023-08-07T09:05:43;19.80;70.60
76613;DHT22;65507;48.454;-2.058;2023-08-07T09:08:10;19.80;70.70
76613;DHT22;65507;48.454;-2.058;2023-08-07T09:10:36;19.60;71.00
76613;DHT22;65507;48.454;-2.058;2023-08-07T09:13:03;19.50;71.70
76613;DHT22;65507;48.454;-2.058;2023-08-07T09:15:31;19.40;71.80
76613;DHT22;65507;48.454;-2.058;2023-08-07T09:17:57;19.60;72.50
76613;DHT22;65507;48.454;-2.058;2023-08-07T09:20:24;19.80;71.10
76613;DHT22;65507;48.454;-2.058;2023-08-07T09:22:50;20.00;70.60
76613;DHT22;65507;48.454;-2.058;2023-08-07T09:25:26;20.00;70.40
76613;DHT22;65507;48.454;-2.058;2023-08-07T09:27:52;20.00;70.50
76613;DHT22;65507;48.454;-2.058;2023-08-07T09:30:17;19.80;70.90
76613;DHT22;65507;48.454;-2.058;2023-08-07T09:32:43;19.90;71.10
76613;DHT22;65507;48.454;-2.058;2023-08-07T09:35:09;19.90;71.00
76613;DHT22;65507;48.454;-2.058;2023-08-07T09:37:36;20.00;70.60
76613;DHT22;65507;48.454;-2.058;2023-08-07T09:40:02;20.20;70.50
76613;DHT22;65507;48.454;-2.058;2023-08-07T09:42:30;20.30;70.00
76613;DHT22;65507;48.454;-2.058;2023-08-07T09:44:56;20.50;69.70
76613;DHT22;65507;48.454;-2.058;2023-08-07T09:47:21;20.60;69.50
76613;DHT22;65507;48.454;-2.058;2023-08-07T09:49:47;20.60;69.40
76613;DHT22;65507;48.454;-2.058;2023-08-07T09:52:13;20.50;69.70
76613;DHT22;65507;48.454;-2.058;2023-08-07T09:54:40;20.30;70.00
76613;DHT22;65507;48.454;-2.058;2023-08-07T09:57:06;20.30;70.60
76613;DHT22;65507;48.454;-2.058;2023-08-07T09:59:35;18.50;69.70
76613;DHT22;65507;48.454;-2.058;2023-08-07T10:02:01;20.40;70.40
76613;DHT22;65507;48.454;-2.058;2023-08-07T10:04:30;20.60;69.80
76613;DHT22;65507;48.454;-2.058;2023-08-07T10:06:55;21.00;69.20
76613;DHT22;65507;48.454;-2.058;2023-08-07T10:09:21;21.20;68.90
76613;DHT22;65507;48.454;-2.058;2023-08-07T10:11:48;21.30;68.50
76613;DHT22;65507;48.454;-2.058;2023-08-07T10:14:13;21.20;68.50
76613;DHT22;65507;48.454;-2.058;2023-08-07T10:16:40;21.10;68.80
76613;DHT22;65507;48.454;-2.058;2023-08-07T10:19:06;21.00;69.20
76613;DHT22;65507;48.454;-2.058;2023-08-07T10:21:35;20.90;69.50
76613;DHT22;65507;48.454;-2.058;2023-08-07T10:24:03;20.90;69.70
76613;DHT22;65507;48.454;-2.058;2023-08-07T10:26:29;20.90;69.60
76613;DHT22;65507;48.454;-2.058;2023-08-07T10:28:54;20.90;69.80
76613;DHT22;65507;48.454;-2.058;2023-08-07T10:31:21;21.00;69.50
76613;DHT22;65507;48.454;-2.058;2023-08-07T10:33:47;21.10;69.20
76613;DHT22;65507;48.454;-2.058;2023-08-07T10:36:15;21.30;69.00
76613;DHT22;65507;48.454;-2.058;2023-08-07T10:38:42;21.30;69.80
76613;DHT22;65507;48.454;-2.058;2023-08-07T10:41:08;21.50;68.50
76613;DHT22;65507;48.454;-2.058;2023-08-07T10:43:41;21.70;67.90
76613;DHT22;65507;48.454;-2.058;2023-08-07T10:46:08;21.90;67.50
76613;DHT22;65507;48.454;-2.058;2023-08-07T10:48:41;21.80;67.60
76613;DHT22;65507;48.454;-2.058;2023-08-07T10:51:07;20.70;67.50
76613;DHT22;65507;48.454;-2.058;2023-08-07T10:53:36;21.70;68.80
76613;DHT22;65507;48.454;-2.058;2023-08-07T10:56:03;21.70;68.10
76613;DHT22;65507;48.454;-2.058;2023-08-07T10:58:32;21.70;68.30
76613;DHT22;65507;48.454;-2.058;2023-08-07T11:03:50;21.70;68.00
76613;DHT22;65507;48.454;-2.058;2023-08-07T11:06:17;21.80;67.90
76613;DHT22;65507;48.454;-2.058;2023-08-07T11:08:42;22.00;67.50
76613;DHT22;65507;48.454;-2.058;2023-08-07T11:11:08;22.10;67.90
76613;DHT22;65507;48.454;-2.058;2023-08-07T11:13:34;22.20;67.20
76613;DHT22;65507;48.454;-2.058;2023-08-07T11:16:02;22.10;67.20
76613;DHT22;65507;48.454;-2.058;2023-08-07T11:18:28;22.00;67.50
76613;DHT22;65507;48.454;-2.058;2023-08-07T11:20:57;21.80;68.00
76613;DHT22;65507;48.454;-2.058;2023-08-07T11:23:23;21.70;68.30
76613;DHT22;65507;48.454;-2.058;2023-08-07T11:25:49;21.70;68.30
76613;DHT22;65507;48.454;-2.058;2023-08-07T11:28:17;22.70;68.50
76613;DHT22;65507;48.454;-2.058;2023-08-07T11:30:43;22.00;67.60
76613;DHT22;65507;48.454;-2.058;2023-08-07T11:33:09;22.10;67.20
76613;DHT22;65507;48.454;-2.058;2023-08-07T11:35:34;22.20;67.20
76613;DHT22;65507;48.454;-2.058;2023-08-07T11:38:00;22.30;66.90
76613;DHT22;65507;48.454;-2.058;2023-08-07T11:40:25;22.40;67.00
76613;DHT22;65507;48.454;-2.058;2023-08-07T11:42:51;22.30;67.10
76613;DHT22;65507;48.454;-2.058;2023-08-07T11:45:16;22.30;67.20
76613;DHT22;65507;48.454;-2.058;2023-08-07T11:47:42;22.20;67.40
76613;DHT22;65507;48.454;-2.058;2023-08-07T11:50:09;22.20;67.40
76613;DHT22;65507;48.454;-2.058;2023-08-07T11:52:35;22.30;67.20
76613;DHT22;65507;48.454;-2.058;2023-08-07T11:55:02;22.30;67.00
76613;DHT22;65507;48.454;-2.058;2023-08-07T11:57:27;22.40;67.00
76613;DHT22;65507;48.454;-2.058;2023-08-07T11:59:53;22.40;66.90
76613;DHT22;65507;48.454;-2.058;2023-08-07T12:02:22;22.50;67.00
76613;DHT22;65507;48.454;-2.058;2023-08-07T12:04:48;22.60;66.50
76613;DHT22;65507;48.454;-2.058;2023-08-07T12:07:16;22.70;66.70
76613;DHT22;65507;48.454;-2.058;2023-08-07T12:09:42;22.70;66.30
76613;DHT22;65507;48.454;-2.058;2023-08-07T12:12:08;22.60;66.60
76613;DHT22;65507;48.454;-2.058;2023-08-07T12:14:33;22.60;66.60
76613;DHT22;65507;48.454;-2.058;2023-08-07T12:17:00;22.60;66.80
76613;DHT22;65507;48.454;-2.058;2023-08-07T12:19:35;22.60;66.80
76613;DHT22;65507;48.454;-2.058;2023-08-07T12:22:01;22.70;66.80
76613;DHT22;65507;48.454;-2.058;2023-08-07T12:24:29;22.80;66.60
76613;DHT22;65507;48.454;-2.058;2023-08-07T12:26:54;22.80;66.60
76613;DHT22;65507;48.454;-2.058;2023-08-07T12:29:20;22.70;66.80
76613;DHT22;65507;48.454;-2.058;2023-08-07T12:31:45;22.70;66.90
76613;DHT22;65507;48.454;-2.058;2023-08-07T12:34:11;22.60;66.80
76613;DHT22;65507;48.454;-2.058;2023-08-07T12:36:37;22.70;67.00
76613;DHT22;65507;48.454;-2.058;2023-08-07T12:39:02;22.80;66.60
76613;DHT22;65507;48.454;-2.058;2023-08-07T12:41:28;22.80;66.60
76613;DHT22;65507;48.454;-2.058;2023-08-07T12:43:53;24.50;67.40
76613;DHT22;65507;48.454;-2.058;2023-08-07T12:46:19;22.80;66.50
76613;DHT22;65507;48.454;-2.058;2023-08-07T12:48:44;22.80;66.60
76613;DHT22;65507;48.454;-2.058;2023-08-07T12:51:10;22.80;66.50
76613;DHT22;65507;48.454;-2.058;2023-08-07T12:53:36;22.70;66.60
76613;DHT22;65507;48.454;-2.058;2023-08-07T12:56:01;22.80;66.40
76613;DHT22;65507;48.454;-2.058;2023-08-07T12:58:28;23.00;66.10
76613;DHT22;65507;48.454;-2.058;2023-08-07T13:00:54;23.10;65.90
76613;DHT22;65507;48.454;-2.058;2023-08-07T13:03:20;23.20;65.70
76613;DHT22;65507;48.454;-2.058;2023-08-07T13:05:46;23.20;65.70
76613;DHT22;65507;48.454;-2.058;2023-08-07T13:08:11;23.20;65.50
76613;DHT22;65507;48.454;-2.058;2023-08-07T13:10:37;23.10;65.80
76613;DHT22;65507;48.454;-2.058;2023-08-07T13:13:04;23.00;66.00
76613;DHT22;65507;48.454;-2.058;2023-08-07T13:15:30;23.00;66.10
76613;DHT22;65507;48.454;-2.058;2023-08-07T13:17:56;23.10;66.00
76613;DHT22;65507;48.454;-2.058;2023-08-07T13:20:22;23.20;65.50
76613;DHT22;65507;48.454;-2.058;2023-08-07T13:22:47;23.30;65.50
76613;DHT22;65507;48.454;-2.058;2023-08-07T13:25:13;23.40;65.50
76613;DHT22;65507;48.454;-2.058;2023-08-07T13:27:39;23.50;65.20
76613;DHT22;65507;48.454;-2.058;2023-08-07T13:30:05;23.60;65.00
76613;DHT22;65507;48.454;-2.058;2023-08-07T13:32:31;23.80;64.50
76613;DHT22;65507;48.454;-2.058;2023-08-07T13:34:59;23.90;64.40
76613;DHT22;65507;48.454;-2.058;2023-08-07T13:37:24;24.10;64.10
76613;DHT22;65507;48.454;-2.058;2023-08-07T13:39:50;24.20;64.10
76613;DHT22;65507;48.454;-2.058;2023-08-07T13:42:17;24.30;64.10
76613;DHT22;65507;48.454;-2.058;2023-08-07T13:44:43;24.40;64.00
76613;DHT22;65507;48.454;-2.058;2023-08-07T13:47:09;24.60;63.80
76613;DHT22;65507;48.454;-2.058;2023-08-07T13:49:35;24.80;63.40
76613;DHT22;65507;48.454;-2.058;2023-08-07T13:52:01;26.50;64.80
76613;DHT22;65507;48.454;-2.058;2023-08-07T13:54:27;24.70;63.80
76613;DHT22;65507;48.454;-2.058;2023-08-07T13:56:52;24.50;64.50
76613;DHT22;65507;48.454;-2.058;2023-08-07T13:59:18;24.40;64.60
76613;DHT22;65507;48.454;-2.058;2023-08-07T14:01:43;24.30;64.80
76613;DHT22;65507;48.454;-2.058;2023-08-07T14:04:09;24.20;65.20
76613;DHT22;65507;48.454;-2.058;2023-08-07T14:06:34;24.20;65.00
76613;DHT22;65507;48.454;-2.058;2023-08-07T14:09:00;24.40;64.90
76613;DHT22;65507;48.454;-2.058;2023-08-07T14:11:25;24.50;64.80
76613;DHT22;65507;48.454;-2.058;2023-08-07T14:13:56;24.50;64.70
76613;DHT22;65507;48.454;-2.058;2023-08-07T14:16:22;24.60;64.50
76613;DHT22;65507;48.454;-2.058;2023-08-07T14:18:47;24.60;64.40
76613;DHT22;65507;48.454;-2.058;2023-08-07T14:21:13;24.50;64.60
76613;DHT22;65507;48.454;-2.058;2023-08-07T14:23:38;24.30;64.80
76613;DHT22;65507;48.454;-2.058;2023-08-07T14:26:04;24.20;65.40
76613;DHT22;65507;48.454;-2.058;2023-08-07T14:28:29;24.10;65.50
76613;DHT22;65507;48.454;-2.058;2023-08-07T14:30:58;24.10;65.40
76613;DHT22;65507;48.454;-2.058;2023-08-07T14:33:25;24.00;65.50
76613;DHT22;65507;48.454;-2.058;2023-08-07T14:35:50;24.00;65.60
76613;DHT22;65507;48.454;-2.058;2023-08-07T14:38:16;23.90;65.50
76613;DHT22;65507;48.454;-2.058;2023-08-07T14:40:41;23.90;65.50
76613;DHT22;65507;48.454;-2.058;2023-08-07T14:43:08;23.90;65.80
76613;DHT22;65507;48.454;-2.058;2023-08-07T14:45:34;23.90;65.60
76613;DHT22;65507;48.454;-2.058;2023-08-07T14:47:59;23.80;65.70
76613;DHT22;65507;48.454;-2.058;2023-08-07T14:50:25;23.70;65.90
76613;DHT22;65507;48.454;-2.058;2023-08-07T14:52:50;23.60;65.80
76613;DHT22;65507;48.454;-2.058;2023-08-07T14:55:16;23.50;66.20
76613;DHT22;65507;48.454;-2.058;2023-08-07T14:57:42;23.40;66.20
76613;DHT22;65507;48.454;-2.058;2023-08-07T15:00:08;23.20;66.40
76613;DHT22;65507;48.454;-2.058;2023-08-07T15:02:34;23.00;66.50
76613;DHT22;65507;48.454;-2.058;2023-08-07T15:05:00;22.80;66.70
76613;DHT22;65507;48.454;-2.058;2023-08-07T15:07:25;22.60;66.90
76613;DHT22;65507;48.454;-2.058;2023-08-07T15:09:51;22.50;66.90
76613;DHT22;65507;48.454;-2.058;2023-08-07T15:12:16;22.40;66.90